createdAt,value
2022-08-05T00:00:21.620Z,100561.69
2022-08-05T00:02:50.914Z,100515.59
2022-08-05T00:06:02.110Z,100560.09
2022-08-05T00:08:32.794Z,100575.78
2022-08-05T00:11:00.788Z,100560.13
2022-08-05T00:13:38.763Z,100531.41
2022-08-05T00:16:10.981Z,100561.13
2022-08-05T00:18:42.554Z,100484.41
2022-08-05T00:21:12.102Z,100526.06
2022-08-05T00:23:46.268Z,100551.41
2022-08-05T00:26:16.328Z,100469.63
2022-08-05T00:28:43.902Z,100566.25
2022-08-05T00:31:13.086Z,100570.63
2022-08-05T00:34:55.494Z,100569.81
2022-08-05T00:37:09.861Z,100563.81
2022-08-05T00:39:14.518Z,100547.44
2022-08-05T00:41:55.278Z,100552.78
2022-08-05T00:44:31.004Z,100494.41
2022-08-05T00:47:02.071Z,100559.72
2022-08-05T00:49:44.400Z,100557.13
2022-08-05T00:52:18.929Z,100534.34
2022-08-05T00:54:56.311Z,100564.88
2022-08-05T00:57:25.438Z,100534.44
2022-08-05T00:59:58.918Z,100502.28
2022-08-05T01:02:25.833Z,100425.69
2022-08-05T01:04:52.798Z,100353.50
2022-08-05T01:07:19.778Z,100560.84
2022-08-05T01:09:47.097Z,100496.44
2022-08-05T01:12:24.396Z,100510.44
2022-08-05T01:15:06.844Z,100563.50
2022-08-05T01:18:01.198Z,100546.13
2022-08-05T01:21:00.820Z,100566.13
2022-08-05T01:24:01.726Z,100578.41
2022-08-05T01:26:58.667Z,100570.59
2022-08-05T01:29:43.044Z,100568.81
2022-08-05T01:32:18.375Z,100539.19
2022-08-05T01:34:50.700Z,100574.91
2022-08-05T01:37:44.493Z,100478.91
2022-08-05T01:40:17.919Z,100507.72
2022-08-05T01:42:47.275Z,100574.06
2022-08-05T01:45:16.644Z,100569.56
2022-08-05T01:47:45.120Z,100571.38
2022-08-05T01:50:20.263Z,100432.06
2022-08-05T01:53:02.486Z,100571.38
2022-08-05T01:55:36.047Z,100564.47
2022-08-05T01:58:12.558Z,100560.19
2022-08-05T02:00:49.095Z,100576.81
2022-08-05T02:03:29.108Z,100569.88
2022-08-05T02:06:33.881Z,100568.97
2022-08-05T02:08:57.774Z,100564.47
2022-08-05T02:11:32.759Z,100556.66
2022-08-05T02:14:14.694Z,100561.91
2022-08-05T02:16:52.423Z,100551.44
2022-08-05T02:19:28.898Z,100565.38
2022-08-05T02:22:27.350Z,100552.28
2022-08-05T02:25:02.585Z,100510.50
2022-08-05T02:27:57.881Z,100548.91
2022-08-05T02:30:26.922Z,100555.06
2022-08-05T02:32:56.202Z,100490.66
2022-08-05T02:35:33.367Z,100582.31
2022-08-05T02:38:09.512Z,100591.97
2022-08-05T02:40:41.183Z,100588.41
2022-08-05T02:43:10.987Z,100600.72
2022-08-05T02:45:52.866Z,100584.88
2022-08-05T02:48:29.665Z,100570.88
2022-08-05T02:51:05.685Z,100596.97
2022-08-05T02:53:39.163Z,100572.56
2022-08-05T02:56:09.608Z,100551.81
2022-08-05T02:58:44.819Z,100598.69
2022-08-05T03:01:23.423Z,100537.81
2022-08-05T03:04:02.764Z,100574.34
2022-08-05T03:06:55.156Z,100609.19
2022-08-05T03:09:36.267Z,100532.47
2022-08-05T03:12:06.550Z,100578.56
2022-08-05T03:14:35.445Z,100610.81
2022-08-05T03:17:12.958Z,100602.09
2022-08-05T03:19:39.942Z,100549.78
2022-08-05T03:22:16.457Z,100481.84
2022-08-05T03:24:51.040Z,100598.59
2022-08-05T03:27:22.955Z,100614.16
2022-08-05T03:30:07.305Z,100583.56
2022-08-05T03:32:36.721Z,100603.69
2022-08-05T03:35:04.530Z,100608.00
2022-08-05T03:37:46.152Z,100610.56
2022-08-05T03:40:15.317Z,100605.31
2022-08-05T03:42:52.799Z,100626.28
2022-08-05T03:45:21.585Z,100528.69
2022-08-05T03:47:51.145Z,100632.22
2022-08-05T03:50:18.426Z,100635.75
2022-08-05T03:55:49.991Z,100620.81
2022-08-05T03:56:11.921Z,100647.06
2022-08-05T03:58:41.110Z,100633.06
2022-08-05T04:01:11.218Z,100647.81
2022-08-05T04:03:56.945Z,100642.56
2022-08-05T04:06:30.382Z,100619.81
2022-08-05T04:08:58.782Z,100653.78
2022-08-05T04:11:47.304Z,100623.28
2022-08-05T04:14:18.198Z,100655.13
2022-08-05T04:16:45.310Z,100552.50
2022-08-05T04:19:13.292Z,100653.56
2022-08-05T04:22:09.509Z,100661.38
2022-08-05T04:24:28.315Z,100635.16
2022-08-05T04:26:58.211Z,100654.16
2022-08-05T04:29:27.169Z,100647.22
2022-08-05T04:31:54.380Z,100641.97
2022-08-05T04:34:33.643Z,100635.75
2022-08-05T04:37:04.090Z,100630.38
2022-08-05T04:39:32.434Z,100662.66
2022-08-05T04:42:03.796Z,100529.28
2022-08-05T04:44:30.890Z,100658.09
2022-08-05T04:47:09.744Z,100621.47
2022-08-05T04:50:02.866Z,100636.91
2022-08-05T04:52:27.708Z,100568.88
2022-08-05T04:54:57.289Z,100621.13
2022-08-05T04:57:29.257Z,100649.66
2022-08-05T04:59:58.391Z,100648.75
2022-08-05T05:02:41.255Z,100654.78
2022-08-05T05:05:16.987Z,100643.22
2022-08-05T05:08:29.984Z,100641.53
2022-08-05T05:10:57.562Z,100632.72
2022-08-05T05:13:24.555Z,100563.09
2022-08-05T05:15:57.320Z,100661.38
2022-08-05T05:18:33.340Z,100635.94
2022-08-05T05:21:03.233Z,100605.31
2022-08-05T05:24:01.876Z,100649.59
2022-08-05T05:26:17.708Z,100638.19
2022-08-05T05:28:45.336Z,100666.97
2022-08-05T05:31:12.839Z,100655.50
2022-08-05T05:33:59.872Z,100578.53
2022-08-05T05:36:28.306Z,100630.72
2022-08-05T05:38:57.314Z,100586.22
2022-08-05T05:41:24.936Z,100654.03
2022-08-05T05:43:57.084Z,100645.97
2022-08-05T05:46:27.162Z,100575.28
2022-08-05T05:48:54.229Z,100536.13
2022-08-05T05:51:25.891Z,100660.22
2022-08-05T05:53:59.517Z,100664.44
2022-08-05T05:56:32.198Z,100654.75
2022-08-05T05:59:06.807Z,100618.97
2022-08-05T06:01:37.506Z,100668.47
2022-08-05T06:04:12.679Z,100647.41
2022-08-05T06:06:47.607Z,100676.84
2022-08-05T06:09:36.282Z,100667.88
2022-08-05T06:12:04.561Z,100584.75
2022-08-05T06:14:32.241Z,100671.16
2022-08-05T06:17:01.928Z,100664.03
2022-08-05T06:19:56.927Z,100667.13
2022-08-05T06:22:33.449Z,100631.66
2022-08-05T06:25:58.975Z,100589.31
2022-08-05T06:28:11.466Z,100581.88
2022-08-05T06:30:37.342Z,100678.03
2022-08-05T06:33:04.302Z,100670.09
2022-08-05T06:36:07.851Z,100672.63
2022-08-05T06:38:18.064Z,100668.69
2022-08-05T06:41:04.428Z,100670.41
2022-08-05T06:43:58.516Z,100627.44
2022-08-05T06:46:18.236Z,100671.22
2022-08-05T06:48:55.335Z,100644.66
2022-08-05T06:51:30.255Z,100639.75
2022-08-05T06:54:03.391Z,100672.69
2022-08-05T06:56:34.261Z,100666.56
2022-08-05T06:59:03.945Z,100646.22
2022-08-05T07:01:36.484Z,100676.31
2022-08-05T07:04:04.211Z,100664.63
2022-08-05T07:06:31.907Z,100662.53
2022-08-05T07:09:03.959Z,100654.94
2022-08-05T07:11:33.136Z,100609.31
2022-08-05T07:14:29.704Z,100676.50
2022-08-05T07:17:58.679Z,100652.22
2022-08-05T07:22:37.817Z,100668.44
2022-08-05T07:25:24.079Z,100676.91
2022-08-05T07:27:58.828Z,100598.56
2022-08-05T07:30:33.150Z,100649.25
2022-08-05T07:33:05.171Z,100650.69
2022-08-05T07:36:01.693Z,100597.28
2022-08-05T07:38:32.710Z,100546.44
2022-08-05T07:42:09.013Z,100664.81
2022-08-05T07:43:52.793Z,100650.44
2022-08-05T07:46:25.207Z,100673.50
2022-08-05T07:49:02.777Z,100676.91
2022-08-05T07:51:36.625Z,100657.38
2022-08-05T07:54:05.686Z,100646.94
2022-08-05T07:56:59.865Z,100649.00
2022-08-05T07:59:30.983Z,100651.31
2022-08-05T08:02:07.357Z,100643.13
2022-08-05T08:04:44.900Z,100631.09
2022-08-05T08:07:13.180Z,100658.88
2022-08-05T08:09:40.329Z,100660.03
2022-08-05T08:12:35.611Z,100639.03
2022-08-05T08:14:54.506Z,100616.28
2022-08-05T08:17:21.794Z,100655.03
2022-08-05T08:20:22.391Z,100649.31
2022-08-05T08:22:36.284Z,100643.19
2022-08-05T08:25:16.358Z,100649.22
2022-08-05T08:27:47.545Z,100630.50
2022-08-05T08:30:29.727Z,100636.88
2022-08-05T08:33:04.432Z,100648.41
2022-08-05T08:35:41.391Z,100643.84
2022-08-05T08:38:35.425Z,100565.59
2022-08-05T08:41:10.658Z,100613.53
2022-08-05T08:45:24.311Z,100640.53
2022-08-05T08:46:32.320Z,100640.94
2022-08-05T08:50:22.470Z,100651.09
2022-08-05T08:52:04.128Z,100590.00
2022-08-05T08:54:42.217Z,100611.16
2022-08-05T08:57:11.458Z,100576.16
2022-08-05T08:59:41.962Z,100642.63
2022-08-05T09:02:16.646Z,100646.47
2022-08-05T09:04:58.338Z,100654.97
2022-08-05T09:07:56.002Z,100652.56
2022-08-05T09:10:21.917Z,100609.84
2022-08-05T09:12:55.906Z,100522.00
2022-08-05T09:15:23.479Z,100629.06
2022-08-05T09:17:53.025Z,100620.91
2022-08-05T09:20:36.484Z,100578.59
2022-08-05T09:23:09.182Z,100608.88
2022-08-05T09:26:01.915Z,100619.69
2022-08-05T09:28:31.446Z,100570.56
2022-08-05T09:31:22.093Z,100624.31
2022-08-05T09:33:59.081Z,100544.56
2022-08-05T09:36:45.676Z,100622.94
2022-08-05T09:39:41.280Z,100612.56
2022-08-05T09:42:22.997Z,100576.09
2022-08-05T09:44:56.491Z,100608.47
2022-08-05T09:47:29.678Z,100541.22
2022-08-05T09:50:13.760Z,100604.38
2022-08-05T09:52:45.926Z,100604.44
2022-08-05T09:55:56.675Z,100594.88
2022-08-05T09:58:10.197Z,100605.22
2022-08-05T10:00:38.419Z,100605.34
2022-08-05T10:03:11.772Z,100618.38
2022-08-05T10:05:41.851Z,100606.88
2022-08-05T10:08:34.948Z,100536.44
2022-08-05T10:10:55.944Z,100602.13
2022-08-05T10:13:46.283Z,100521.13
2022-08-05T10:16:41.893Z,100473.25
2022-08-05T10:19:23.528Z,100587.22
2022-08-05T10:21:59.441Z,100583.88
2022-08-05T10:24:27.371Z,100498.38
2022-08-05T10:27:00.608Z,100585.78
2022-08-05T10:30:07.180Z,100444.78
2022-08-05T10:32:53.120Z,100582.47
2022-08-05T10:35:04.346Z,100507.03
2022-08-05T10:37:40.302Z,100547.84
2022-08-05T10:40:35.797Z,100579.72
2022-08-05T10:43:49.010Z,100588.25
2022-08-05T10:46:18.797Z,100580.69
2022-08-05T10:49:01.440Z,100585.97
2022-08-05T10:51:57.708Z,100587.13
2022-08-05T10:55:02.586Z,100588.69
2022-08-05T10:57:32.473Z,100568.84
2022-08-05T11:00:20.231Z,100582.00
2022-08-05T11:03:23.410Z,100390.16
2022-08-05T11:06:15.326Z,100567.56
2022-08-05T11:09:24.456Z,100580.88
2022-08-05T11:12:26.642Z,100577.41
2022-08-05T11:15:20.143Z,100573.94
2022-08-05T11:18:09.562Z,100497.81
2022-08-05T11:20:43.837Z,100567.03
2022-08-05T11:24:05.259Z,100536.75
2022-08-05T11:26:32.932Z,100523.50
2022-08-05T11:29:13.175Z,100525.00
2022-08-05T11:31:54.420Z,100518.09
2022-08-05T11:34:37.788Z,100554.78
2022-08-05T11:37:55.151Z,100484.78
2022-08-05T11:39:55.350Z,100534.41
2022-08-05T11:42:28.288Z,100497.78
2022-08-05T11:45:03.259Z,100540.50
2022-08-05T11:47:49.789Z,100559.34
2022-08-05T11:50:18.245Z,100550.13
2022-08-05T11:52:46.162Z,100534.72
2022-08-05T11:55:16.654Z,100557.31
2022-08-05T11:58:09.469Z,100537.88
2022-08-05T12:00:38.414Z,100534.91
2022-08-05T12:03:28.764Z,100496.50
2022-08-05T12:06:05.909Z,100423.91
2022-08-05T12:08:33.888Z,100474.94
2022-08-05T12:11:05.918Z,100539.41
2022-08-05T12:13:48.628Z,100531.25
2022-08-05T12:16:25.397Z,100537.28
2022-08-05T12:18:53.656Z,100462.34
2022-08-05T12:21:29.845Z,100559.34
2022-08-05T12:24:09.399Z,100501.97
2022-08-05T12:26:39.205Z,100559.16
2022-08-05T12:29:16.136Z,100525.81
2022-08-05T12:31:53.821Z,100533.47
2022-08-05T12:34:28.723Z,100527.72
2022-08-05T12:36:58.362Z,100484.31
2022-08-05T12:39:34.366Z,100534.13
2022-08-05T12:42:18.103Z,100521.25
2022-08-05T12:44:47.634Z,100546.47
2022-08-05T12:47:28.796Z,100517.63
2022-08-05T12:50:03.593Z,100517.13
2022-08-05T12:52:39.293Z,100477.28
2022-08-05T12:55:22.100Z,100531.03
2022-08-05T12:58:52.625Z,100507.03
2022-08-05T13:02:02.134Z,100447.06
2022-08-05T13:03:32.270Z,100523.75
2022-08-05T13:06:01.555Z,100517.31
2022-08-05T13:08:32.108Z,100455.97
2022-08-05T13:11:02.464Z,100483.88
2022-08-05T13:14:06.601Z,100508.69
2022-08-05T13:16:20.830Z,100508.09
2022-08-05T13:18:58.378Z,100501.63
2022-08-05T13:21:28.457Z,100477.03
2022-08-05T13:24:08.825Z,100504.41
2022-08-05T13:26:36.293Z,100482.47
2022-08-05T13:29:05.234Z,100513.75
2022-08-05T13:32:03.498Z,100505.78
2022-08-05T13:34:22.502Z,100479.38
2022-08-05T13:36:53.256Z,100491.53
2022-08-05T13:39:24.592Z,100497.59
2022-08-05T13:42:14.757Z,100502.75
2022-08-05T13:44:45.846Z,100479.44
2022-08-05T13:47:34.843Z,100436.50
2022-08-05T13:50:04.415Z,100487.41
2022-08-05T13:52:35.211Z,100449.13
2022-08-05T13:55:07.606Z,100422.34
2022-08-05T13:57:48.523Z,100473.41
2022-08-05T14:00:27.271Z,100416.81
2022-08-05T14:02:57.990Z,100482.16
2022-08-05T14:05:48.188Z,100471.63
2022-08-05T14:08:21.168Z,100428.50
2022-08-05T14:11:03.244Z,100482.91
2022-08-05T14:13:42.309Z,100472.56
2022-08-05T14:16:11.545Z,100480.53
2022-08-05T14:18:43.689Z,100469.53
2022-08-05T14:22:07.325Z,100385.75
2022-08-05T14:23:57.876Z,100479.16
2022-08-05T14:26:36.775Z,100474.75
2022-08-05T14:29:16.710Z,100472.84
2022-08-05T14:32:03.582Z,100467.19
2022-08-05T14:34:35.346Z,100414.78
2022-08-05T14:37:04.819Z,100400.34
2022-08-05T14:39:50.214Z,100351.00
2022-08-05T14:42:21.795Z,100383.72
2022-08-05T14:44:49.523Z,100466.97
2022-08-05T14:47:17.115Z,100440.88
2022-08-05T14:50:18.285Z,100463.31
2022-08-05T14:52:58.355Z,100389.19
2022-08-05T14:55:38.683Z,100444.22
2022-08-05T14:58:10.827Z,100389.63
2022-08-05T15:00:58.800Z,100470.16
2022-08-05T15:03:33.389Z,100430.41
2022-08-05T15:06:15.048Z,100453.84
2022-08-05T15:09:01.448Z,100424.34
2022-08-05T15:11:51.920Z,100460.13
2022-08-05T15:14:34.447Z,100457.63
2022-08-05T15:17:05.501Z,100454.25
2022-08-05T15:19:52.544Z,100432.97
2022-08-05T15:22:22.452Z,100456.59
2022-08-05T15:24:55.108Z,100437.53
2022-08-05T15:27:22.088Z,100458.53
2022-08-05T15:29:54.202Z,100443.84
2022-08-05T15:32:27.374Z,100437.09
2022-08-05T15:34:57.166Z,100437.72
2022-08-05T15:38:31.749Z,100410.94
2022-08-05T15:41:00.647Z,100418.69
2022-08-05T15:43:10.877Z,100457.66
2022-08-05T15:45:45.924Z,100409.22
2022-08-05T15:48:15.193Z,100457.66
2022-08-05T15:50:43.544Z,100372.22
2022-08-05T15:53:13.063Z,100444.63
2022-08-05T15:56:03.072Z,100418.97
2022-08-05T15:58:35.715Z,100462.25
2022-08-05T16:01:17.441Z,100459.66
2022-08-05T16:03:48.315Z,100465.19
2022-08-05T16:06:20.245Z,100461.63
2022-08-05T16:08:50.847Z,100459.31
2022-08-05T16:11:18.663Z,100463.25
2022-08-05T16:13:48.594Z,100456.16
2022-08-05T16:16:25.095Z,100364.78
2022-08-05T16:18:53.123Z,100480.09
2022-08-05T16:21:20.808Z,100450.69
2022-08-05T16:24:12.709Z,100397.41
2022-08-05T16:26:57.211Z,100484.06
2022-08-05T16:29:25.959Z,100428.16
2022-08-05T16:31:56.282Z,100470.16
2022-08-05T16:34:25.806Z,100490.56
2022-08-05T16:36:55.052Z,100486.41
2022-08-05T16:39:22.979Z,100464.03
2022-08-05T16:42:14.484Z,100494.00
2022-08-05T16:44:44.222Z,100410.34
2022-08-05T16:47:28.536Z,100395.78
2022-08-05T16:49:58.491Z,100469.78
2022-08-05T16:52:30.779Z,100465.25
2022-08-05T16:55:00.754Z,100466.59
2022-08-05T16:57:50.471Z,100505.09
2022-08-05T17:00:25.913Z,100425.81
2022-08-05T17:03:15.422Z,100426.38
2022-08-05T17:05:54.047Z,100384.97
2022-08-05T17:08:51.888Z,100448.94
2022-08-05T17:11:17.457Z,100508.97
2022-08-05T17:13:45.622Z,100512.09
2022-08-05T17:16:29.819Z,100470.94
2022-08-05T17:18:59.953Z,100496.34
2022-08-05T17:21:35.325Z,100514.81
2022-08-05T17:24:18.481Z,100456.34
2022-08-05T17:26:52.938Z,100514.44
2022-08-05T17:29:22.362Z,100519.22
2022-08-05T17:31:58.383Z,100434.59
2022-08-05T17:34:29.756Z,100486.84
2022-08-05T17:36:57.404Z,100521.84
2022-08-05T17:39:33.590Z,100486.56
2022-08-05T17:42:18.474Z,100524.19
2022-08-05T17:44:50.435Z,100499.25
2022-08-05T17:47:21.900Z,100431.16
2022-08-05T17:49:52.022Z,100488.59
2022-08-05T17:52:31.110Z,100527.84
2022-08-05T17:54:58.226Z,100474.25
2022-08-05T17:57:25.213Z,100509.00
2022-08-05T18:00:03.639Z,100509.44
2022-08-05T18:02:34.219Z,100512.97
2022-08-05T18:05:06.274Z,100495.91
2022-08-05T18:07:41.657Z,100508.91
2022-08-05T18:10:20.436Z,100516.19
2022-08-05T18:12:49.695Z,100473.94
2022-08-05T18:15:16.762Z,100529.81
2022-08-05T18:17:58.712Z,100463.16
2022-08-05T18:20:31.607Z,100527.50
2022-08-05T18:23:09.509Z,100529.38
2022-08-05T18:25:45.303Z,100493.22
2022-08-05T18:28:17.673Z,100517.66
2022-08-05T18:30:51.353Z,100517.91
2022-08-05T18:33:22.614Z,100389.88
2022-08-05T18:36:04.256Z,100531.47
2022-08-05T18:38:37.614Z,100537.66
2022-08-05T18:41:56.219Z,100533.41
2022-08-05T18:43:54.701Z,100523.38
2022-08-05T18:46:25.906Z,100505.28
2022-08-05T18:48:55.994Z,100433.44
2022-08-05T18:52:06.034Z,100526.44
2022-08-05T18:54:35.083Z,100530.88
2022-08-05T18:57:02.838Z,100450.31
2022-08-05T18:59:43.267Z,100535.56
2022-08-05T19:02:26.435Z,100534.75
2022-08-05T19:05:02.228Z,100425.41
2022-08-05T19:07:46.097Z,100492.53
2022-08-05T19:10:18.779Z,100539.69
2022-08-05T19:12:53.864Z,100539.84
2022-08-05T19:15:56.885Z,100538.28
2022-08-05T19:18:10.694Z,100539.38
2022-08-05T19:20:46.726Z,100483.16
2022-08-05T19:24:03.523Z,100537.91
2022-08-05T19:26:03.005Z,100538.03
2022-08-05T19:28:32.871Z,100528.63
2022-08-05T19:31:01.002Z,100470.53
2022-08-05T19:33:35.937Z,100443.78
2022-08-05T19:36:06.368Z,100536.00
2022-08-05T19:38:37.132Z,100472.59
2022-08-05T19:41:07.157Z,100517.28
2022-08-05T19:44:07.072Z,100528.44
2022-08-05T19:46:29.366Z,100521.53
2022-08-05T19:49:01.186Z,100541.66
2022-08-05T19:52:04.552Z,100533.78
2022-08-05T19:54:29.395Z,100467.09
2022-08-05T19:57:02.256Z,100511.47
2022-08-05T19:59:55.576Z,100493.41
2022-08-05T20:02:18.169Z,100536.75
2022-08-05T20:04:48.279Z,100495.31
2022-08-05T20:07:15.908Z,100535.19
2022-08-05T20:10:13.596Z,100528.47
2022-08-05T20:12:47.597Z,100537.19
2022-08-05T20:15:23.030Z,100483.41
2022-08-05T20:18:10.569Z,100510.34
2022-08-05T20:20:56.100Z,100520.75
2022-08-05T20:23:38.783Z,100535.63
2022-08-05T20:26:16.259Z,100518.19
2022-08-05T20:28:55.911Z,100535.03
2022-08-05T20:31:36.836Z,100528.56
2022-08-05T20:34:10.686Z,100530.72
2022-08-05T20:36:39.056Z,100515.84
2022-08-05T20:39:10.304Z,100445.44
2022-08-05T20:41:44.278Z,100431.53
2022-08-05T20:44:17.445Z,100387.38
2022-08-05T20:46:48.179Z,100440.25
2022-08-05T20:49:15.433Z,100499.31
2022-08-05T20:51:53.341Z,100529.13
2022-08-05T20:54:22.650Z,100521.38
2022-08-05T20:56:53.102Z,100501.41
2022-08-05T20:59:26.901Z,100392.84
2022-08-05T21:02:07.745Z,100490.03
2022-08-05T21:04:36.434Z,100417.44
2022-08-05T21:07:04.955Z,100522.47
2022-08-05T21:09:35.412Z,100356.72
2022-08-05T21:12:09.120Z,100526.97
2022-08-05T21:14:38.849Z,100525.31
2022-08-05T21:17:06.282Z,100525.25
2022-08-05T21:19:47.122Z,100506.13
2022-08-05T21:22:21.628Z,100433.13
2022-08-05T21:24:51.553Z,100426.56
2022-08-05T21:27:25.338Z,100516.94
2022-08-05T21:29:56.465Z,100519.59
2022-08-05T21:32:26.648Z,100514.38
2022-08-05T21:35:17.728Z,100376.41
2022-08-05T21:37:47.207Z,100507.63
2022-08-05T21:40:23.911Z,100508.78
2022-08-05T21:42:53.589Z,100524.41
2022-08-05T21:45:51.488Z,100441.84
2022-08-05T21:48:11.248Z,100434.31
2022-08-05T21:50:53.059Z,100510.78
2022-08-05T21:53:21.770Z,100539.84
2022-08-05T21:56:05.571Z,100404.38
2022-08-05T21:58:42.006Z,100538.38
2022-08-05T22:01:10.816Z,100530.53
2022-08-05T22:03:49.088Z,100504.44
2022-08-05T22:06:34.802Z,100520.22
2022-08-05T22:09:13.256Z,100499.59
2022-08-05T22:11:43.353Z,100524.16
2022-08-05T22:14:35.043Z,100532.81
2022-08-05T22:17:03.805Z,100510.28
2022-08-05T22:20:00.389Z,100529.34
2022-08-05T22:22:26.695Z,100532.00
2022-08-05T22:25:21.873Z,100496.34
2022-08-05T22:28:11.418Z,100528.59
2022-08-05T22:30:55.770Z,100476.53
2022-08-05T22:33:58.343Z,100520.81
2022-08-05T22:36:15.564Z,100520.88
2022-08-05T22:38:48.580Z,100490.44
2022-08-05T22:42:05.694Z,100497.41
2022-08-05T22:44:08.528Z,100502.94
2022-08-05T22:46:39.957Z,100496.78
2022-08-05T22:49:12.413Z,100535.22
2022-08-05T22:52:04.579Z,100443.91
2022-08-05T22:54:33.898Z,100492.78
2022-08-05T22:57:00.889Z,100507.75
2022-08-05T22:59:47.356Z,100522.53
2022-08-05T23:02:18.109Z,100493.06
2022-08-05T23:04:52.195Z,100534.81
2022-08-05T23:07:22.059Z,100538.34
2022-08-05T23:09:57.531Z,100502.69
2022-08-05T23:12:32.907Z,100532.50
2022-08-05T23:15:09.112Z,100536.81
2022-08-05T23:17:59.874Z,100477.88
2022-08-05T23:20:24.544Z,100526.47
2022-08-05T23:22:55.865Z,100483.16
2022-08-05T23:25:53.470Z,100532.72
2022-08-05T23:28:11.485Z,100491.88
2022-08-05T23:30:40.258Z,100519.75
2022-08-05T23:33:16.461Z,100507.84
2022-08-05T23:35:50.937Z,100460.81
2022-08-05T23:38:18.221Z,100524.34
2022-08-05T23:40:49.901Z,100534.78
2022-08-05T23:43:25.047Z,100511.34
2022-08-05T23:46:19.573Z,100550.66
2022-08-05T23:48:46.686Z,100537.63
2022-08-05T23:51:53.444Z,100461.16
2022-08-05T23:54:26.451Z,100549.03
2022-08-05T23:57:03.690Z,100547.25
